createdAt,value
2023-04-11T00:00:56.692Z,13.20
2023-04-11T00:03:24.244Z,13.30
2023-04-11T00:05:51.813Z,13.30
2023-04-11T00:08:19.196Z,13.30
2023-04-11T00:10:46.362Z,13.40
2023-04-11T00:13:13.967Z,13.30
2023-04-11T00:15:41.221Z,13.40
2023-04-11T00:18:08.422Z,13.40
2023-04-11T00:20:35.612Z,13.40
2023-04-11T00:23:02.772Z,13.40
2023-04-11T00:25:30.347Z,13.40
2023-04-11T00:27:57.695Z,13.40
2023-04-11T00:30:24.937Z,13.50
2023-04-11T00:32:52.208Z,13.50
2023-04-11T00:35:19.605Z,13.50
2023-04-11T00:37:47.320Z,13.50
2023-04-11T00:40:17.640Z,13.50
2023-04-11T00:42:44.953Z,13.50
2023-04-11T00:45:12.997Z,13.50
2023-04-11T00:47:41.301Z,13.50
2023-04-11T00:50:09.707Z,13.50
2023-04-11T00:52:38.987Z,13.50
2023-04-11T00:55:07.996Z,13.50
2023-04-11T00:57:35.621Z,13.50
2023-04-11T01:00:04.262Z,13.50
2023-04-11T01:02:33.647Z,13.50
2023-04-11T01:05:01.637Z,13.50
2023-04-11T01:07:32.721Z,13.50
2023-04-11T01:10:02.707Z,13.50
2023-04-11T01:12:30.873Z,13.50
2023-04-11T01:14:58.751Z,13.50
2023-04-11T01:17:27.488Z,13.50
2023-04-11T01:19:54.959Z,13.50
2023-04-11T01:22:24.114Z,13.50
2023-04-11T01:24:51.955Z,13.40
2023-04-11T01:27:20.014Z,13.50
2023-04-11T01:29:47.233Z,13.40
2023-04-11T01:32:17.474Z,13.40
2023-04-11T01:34:48.588Z,13.40
2023-04-11T01:37:16.505Z,13.40
2023-04-11T01:39:44.301Z,13.40
2023-04-11T01:42:13.026Z,13.40
2023-04-11T01:44:40.970Z,13.30
2023-04-11T01:47:08.540Z,13.30
2023-04-11T01:49:37.087Z,13.30
2023-04-11T01:52:07.008Z,13.30
2023-04-11T01:54:36.762Z,13.30
2023-04-11T01:57:07.215Z,13.30
2023-04-11T01:59:34.605Z,13.30
2023-04-11T02:02:01.887Z,13.30
2023-04-11T02:04:29.411Z,13.20
2023-04-11T02:06:56.714Z,13.20
2023-04-11T02:09:24.066Z,13.20
2023-04-11T02:11:51.254Z,13.20
2023-04-11T02:14:20.937Z,13.20
2023-04-11T02:16:56.593Z,13.20
2023-04-11T02:19:26.294Z,13.20
2023-04-11T02:21:54.054Z,13.10
2023-04-11T02:24:21.253Z,13.10
2023-04-11T02:26:48.618Z,13.10
2023-04-11T02:29:16.205Z,13.00
2023-04-11T02:31:43.452Z,13.00
2023-04-11T02:34:10.635Z,13.00
2023-04-11T02:36:37.742Z,12.90
2023-04-11T02:39:07.891Z,12.90
2023-04-11T02:41:38.313Z,12.90
2023-04-11T02:44:05.708Z,12.90
2023-04-11T02:46:33.142Z,12.90
2023-04-11T02:49:00.482Z,12.90
2023-04-11T02:51:28.707Z,12.80
2023-04-11T02:53:56.012Z,12.80
2023-04-11T02:56:23.322Z,12.80
2023-04-11T02:58:52.835Z,12.80
2023-04-11T03:01:21.768Z,12.80
2023-04-11T03:03:49.041Z,12.80
2023-04-11T03:06:16.467Z,12.80
2023-04-11T03:08:43.883Z,12.80
2023-04-11T03:11:11.435Z,12.70
2023-04-11T03:13:39.528Z,12.70
2023-04-11T03:16:07.424Z,12.80
2023-04-11T03:18:37.190Z,12.70
2023-04-11T03:21:42.348Z,12.70
2023-04-11T03:24:09.485Z,12.70
2023-04-11T03:26:36.765Z,12.70
2023-04-11T03:29:04.259Z,12.60
2023-04-11T03:31:31.532Z,12.60
2023-04-11T03:33:59.463Z,12.60
2023-04-11T03:36:29.989Z,12.60
2023-04-11T03:38:57.292Z,12.60
2023-04-11T03:41:27.639Z,12.50
2023-04-11T03:43:55.033Z,12.50
2023-04-11T03:46:22.364Z,12.50
2023-04-11T03:48:49.631Z,12.40
2023-04-11T03:51:16.871Z,12.40
2023-04-11T03:53:44.451Z,12.40
2023-04-11T03:56:11.663Z,12.30
2023-04-11T03:58:38.979Z,12.30
2023-04-11T04:01:06.512Z,12.30
2023-04-11T04:03:33.964Z,12.20
2023-04-11T04:06:04.489Z,12.30
2023-04-11T04:08:31.827Z,12.20
2023-04-11T04:10:59.019Z,12.20
2023-04-11T04:13:28.078Z,12.20
2023-04-11T04:15:55.265Z,12.20
2023-04-11T04:18:22.439Z,12.20
2023-04-11T04:20:49.727Z,12.20
2023-04-11T04:23:18.363Z,12.30
2023-04-11T04:25:50.635Z,12.30
2023-04-11T04:28:20.627Z,12.30
2023-04-11T04:30:54.461Z,12.30
2023-04-11T04:33:22.073Z,12.30
2023-04-11T04:35:58.343Z,12.30
2023-04-11T04:38:29.141Z,12.30
2023-04-11T04:40:56.527Z,12.20
2023-04-11T04:43:25.235Z,12.20
2023-04-11T04:45:52.420Z,12.20
2023-04-11T04:48:19.641Z,12.20
2023-04-11T04:50:46.953Z,12.20
2023-04-11T04:53:14.142Z,12.20
2023-04-11T04:55:41.370Z,12.20
2023-04-11T04:58:08.560Z,12.20
2023-04-11T05:00:36.952Z,12.20
2023-04-11T05:03:06.124Z,12.20
2023-04-11T05:05:33.462Z,12.20
2023-04-11T05:08:01.250Z,12.20
2023-04-11T05:10:28.596Z,12.20
2023-04-11T05:12:56.119Z,12.20
2023-04-11T05:15:23.739Z,12.20
2023-04-11T05:17:51.010Z,12.20
2023-04-11T05:20:18.449Z,12.20
2023-04-11T05:22:46.146Z,12.20
2023-04-11T05:25:13.297Z,12.20
2023-04-11T05:27:40.748Z,12.20
2023-04-11T05:30:10.236Z,12.20
2023-04-11T05:32:37.677Z,12.20
2023-04-11T05:35:06.093Z,12.20
2023-04-11T05:37:33.263Z,12.20
2023-04-11T05:40:00.555Z,12.20
2023-04-11T05:42:27.796Z,12.20
2023-04-11T05:44:58.130Z,12.10
2023-04-11T05:47:25.670Z,12.10
2023-04-11T05:49:52.877Z,12.10
2023-04-11T05:52:21.264Z,12.00
2023-04-11T05:56:03.676Z,12.00
2023-04-11T05:58:31.024Z,12.00
2023-04-11T06:01:00.253Z,11.90
2023-04-11T06:03:27.982Z,11.90
2023-04-11T06:05:55.847Z,11.90
2023-04-11T06:08:42.187Z,11.80
2023-04-11T06:11:09.604Z,11.80
2023-04-11T06:13:36.800Z,11.80
2023-04-11T06:16:08.377Z,11.80
2023-04-11T06:18:35.865Z,11.80
2023-04-11T06:21:03.392Z,11.80
2023-04-11T06:23:30.915Z,11.80
2023-04-11T06:25:58.224Z,11.80
2023-04-11T06:28:25.560Z,11.80
2023-04-11T06:30:53.059Z,11.90
2023-04-11T06:42:26.945Z,11.90
2023-04-11T06:44:54.605Z,12.00
2023-04-11T06:47:22.024Z,12.00
2023-04-11T06:49:49.509Z,12.00
2023-04-11T07:01:32.023Z,12.20
2023-04-11T07:04:00.004Z,12.30
2023-04-11T07:06:28.707Z,12.40
2023-04-11T07:08:57.383Z,12.50
2023-04-11T07:11:24.846Z,12.50
2023-04-11T07:13:52.098Z,12.60
2023-04-11T07:16:19.868Z,12.70
2023-04-11T07:18:47.220Z,12.80
2023-04-11T07:21:18.820Z,12.90
2023-04-11T07:23:50.129Z,12.90
2023-04-11T07:26:18.088Z,13.00
2023-04-11T07:28:45.735Z,13.00
2023-04-11T07:31:14.067Z,13.10
2023-04-11T07:33:43.970Z,13.20
2023-04-11T07:36:12.048Z,13.30
2023-04-11T07:38:39.509Z,13.40
2023-04-11T07:41:06.978Z,13.40
2023-04-11T07:43:34.391Z,13.50
2023-04-11T07:46:01.783Z,13.60
2023-04-11T07:48:32.106Z,13.70
2023-04-11T07:50:59.335Z,13.80
2023-04-11T07:53:27.106Z,13.90
2023-04-11T07:55:54.431Z,14.00
2023-04-11T07:58:22.436Z,14.00
2023-04-11T08:00:50.847Z,14.10
2023-04-11T08:03:18.309Z,14.20
2023-04-11T08:05:48.200Z,14.20
2023-04-11T08:08:19.681Z,14.20
2023-04-11T08:10:52.005Z,14.20
2023-04-11T08:13:19.541Z,14.20
2023-04-11T08:15:46.794Z,14.20
2023-04-11T08:18:14.102Z,14.20
2023-04-11T08:20:41.475Z,14.20
2023-04-11T08:24:05.495Z,14.30
2023-04-11T08:26:32.710Z,14.30
2023-04-11T08:29:00.129Z,14.40
2023-04-11T08:31:28.620Z,14.50
2023-04-11T08:33:59.153Z,14.50
2023-04-11T08:36:27.833Z,14.50
2023-04-11T08:38:56.967Z,14.50
2023-04-11T08:41:24.153Z,14.60
2023-04-11T08:43:51.617Z,14.60
2023-04-11T08:46:19.077Z,14.60
2023-04-11T08:48:46.485Z,14.60
2023-04-11T08:51:14.921Z,14.50
2023-04-11T08:53:43.193Z,14.50
2023-04-11T08:56:16.917Z,14.50
2023-04-11T08:58:44.374Z,14.50
2023-04-11T09:01:32.733Z,14.40
2023-04-11T09:04:05.377Z,14.40
2023-04-11T09:06:36.910Z,14.50
2023-04-11T09:09:08.968Z,14.50
2023-04-11T09:11:53.581Z,14.60
2023-04-11T09:14:26.966Z,14.80
2023-04-11T09:16:58.613Z,15.00
2023-04-11T09:19:30.637Z,15.30
2023-04-11T09:22:01.835Z,15.50
2023-04-11T09:24:30.458Z,15.80
2023-04-11T09:27:19.798Z,15.90
2023-04-11T09:29:49.863Z,16.00
2023-04-11T09:32:36.165Z,16.00
2023-04-11T09:35:20.686Z,16.00
2023-04-11T09:37:59.394Z,15.90
2023-04-11T09:40:29.311Z,15.90
2023-04-11T09:43:04.146Z,15.90
2023-04-11T09:45:40.896Z,15.90
2023-04-11T09:50:27.276Z,16.00
2023-04-11T09:52:59.361Z,16.10
2023-04-11T09:55:27.470Z,16.50
2023-04-11T09:57:55.601Z,16.70
2023-04-11T10:04:34.852Z,17.20
2023-04-11T10:07:18.492Z,17.50
2023-04-11T10:09:46.809Z,17.70
2023-04-11T10:12:30.490Z,17.70
2023-04-11T10:14:58.309Z,17.80
2023-04-11T10:17:25.794Z,17.80
2023-04-11T10:19:59.849Z,17.80
2023-04-11T10:22:43.544Z,17.70
2023-04-11T10:25:25.054Z,17.60
2023-04-11T10:28:06.839Z,17.50
2023-04-11T10:30:40.325Z,17.50
2023-04-11T10:33:17.837Z,17.50
2023-04-11T10:36:11.756Z,17.60
2023-04-11T10:38:47.557Z,17.70
2023-04-11T10:41:28.994Z,17.80
2023-04-11T10:44:28.937Z,17.80
2023-04-11T10:46:56.451Z,17.80
2023-04-11T10:49:40.874Z,17.90
2023-04-11T10:53:06.844Z,18.00
2023-04-11T10:55:49.768Z,18.10
2023-04-11T10:58:22.472Z,18.20
2023-04-11T11:00:50.071Z,18.30
2023-04-11T11:03:24.687Z,18.40
2023-04-11T11:06:03.704Z,18.40
2023-04-11T11:08:38.276Z,18.50
2023-04-11T11:11:07.965Z,18.50
2023-04-11T11:13:47.592Z,18.60
2023-04-11T11:36:56.638Z,20.20
2023-04-11T11:39:25.268Z,20.30
2023-04-11T11:41:53.734Z,20.20
2023-04-11T11:44:30.110Z,20.10
2023-04-11T11:47:12.924Z,20.10
2023-04-11T11:54:08.780Z,20.20
2023-04-11T11:56:37.647Z,20.50
2023-04-11T11:59:06.593Z,20.70
2023-04-11T12:01:37.101Z,20.80
2023-04-11T12:04:12.011Z,20.90
2023-04-11T12:06:39.289Z,20.90
2023-04-11T12:09:13.271Z,20.90
2023-04-11T12:11:46.382Z,21.00
2023-04-11T12:14:23.786Z,21.10
2023-04-11T12:21:01.167Z,21.30
2023-04-11T12:23:28.641Z,21.40
2023-04-11T12:27:12.024Z,21.50
2023-04-11T12:29:39.881Z,21.50
2023-04-11T12:32:07.393Z,21.60
2023-04-11T12:34:34.545Z,21.60
2023-04-11T12:37:01.941Z,21.50
2023-04-11T12:39:29.115Z,21.40
2023-04-11T12:41:56.413Z,21.30
2023-04-11T12:44:23.972Z,21.40
2023-04-11T12:46:51.501Z,21.40
2023-04-11T12:49:18.629Z,21.40
2023-04-11T12:51:45.978Z,21.40
2023-04-11T12:54:13.372Z,21.40
2023-04-11T12:56:41.283Z,21.30
2023-04-11T12:59:09.072Z,21.30
2023-04-11T13:01:37.193Z,21.30
2023-04-11T13:04:05.404Z,21.30
2023-04-11T13:06:33.532Z,21.40
2023-04-11T13:09:23.167Z,21.60
2023-04-11T13:11:50.839Z,21.80
2023-04-11T13:14:18.193Z,22.10
2023-04-11T13:16:48.531Z,22.30
2023-04-11T13:19:16.144Z,22.50
2023-04-11T13:21:43.359Z,22.70
2023-04-11T13:24:10.968Z,22.90
2023-04-11T13:26:39.838Z,23.00
2023-04-11T13:29:28.302Z,23.20
2023-04-11T13:33:10.754Z,23.40
2023-04-11T13:35:38.157Z,23.50
2023-04-11T13:38:05.789Z,23.60
2023-04-11T13:41:11.886Z,23.60
2023-04-11T13:43:40.546Z,23.50
2023-04-11T13:46:10.896Z,23.50
2023-04-11T13:48:38.535Z,23.60
2023-04-11T13:51:06.307Z,23.60
2023-04-11T13:53:33.838Z,23.70
2023-04-11T13:56:01.380Z,23.70
2023-04-11T13:58:28.757Z,23.60
2023-04-11T14:01:03.765Z,23.50
2023-04-11T14:03:33.753Z,23.50
2023-04-11T14:06:02.139Z,23.50
2023-04-11T14:08:31.701Z,23.60
2023-04-11T14:11:57.203Z,23.70
2023-04-11T14:14:26.761Z,23.80
2023-04-11T14:16:54.189Z,23.70
2023-04-11T14:19:22.918Z,23.70
2023-04-11T14:21:52.257Z,23.60
2023-04-11T14:24:39.892Z,23.50
2023-04-11T14:27:09.468Z,23.40
2023-04-11T14:29:38.114Z,23.30
2023-04-11T14:32:07.220Z,23.20
2023-04-11T14:34:34.628Z,23.20
2023-04-11T14:37:01.822Z,23.20
2023-04-11T14:39:48.161Z,23.20
2023-04-11T14:42:15.537Z,23.20
2023-04-11T14:44:43.217Z,23.30
2023-04-11T14:47:10.649Z,23.30
2023-04-11T14:49:38.122Z,23.30
2023-04-11T14:52:05.677Z,23.30
2023-04-11T14:54:33.061Z,23.30
2023-04-11T14:57:00.508Z,23.30
2023-04-11T14:59:28.172Z,23.30
2023-04-11T15:01:55.647Z,23.30
2023-04-11T15:04:23.263Z,23.40
2023-04-11T15:06:50.765Z,23.30
2023-04-11T15:09:21.540Z,23.30
2023-04-11T15:11:49.251Z,23.30
2023-04-11T15:14:16.497Z,23.30
2023-04-11T15:16:43.840Z,23.30
2023-04-11T15:19:11.048Z,23.30
2023-04-11T15:21:38.625Z,23.30
2023-04-11T15:24:17.200Z,23.30
2023-04-11T15:26:44.898Z,23.30
2023-04-11T15:29:18.506Z,23.30
2023-04-11T15:31:46.698Z,23.20
2023-04-11T15:34:14.483Z,23.20
2023-04-11T15:36:42.671Z,23.10
2023-04-11T15:39:10.074Z,23.20
2023-04-11T15:41:37.518Z,23.20
2023-04-11T15:44:04.867Z,23.30
2023-04-11T15:46:32.306Z,23.30
2023-04-11T15:48:59.586Z,23.30
2023-04-11T15:51:27.413Z,23.20
2023-04-11T15:53:54.940Z,23.00
2023-04-11T15:56:22.593Z,22.80
2023-04-11T15:58:49.839Z,22.60
2023-04-11T16:01:23.914Z,22.50
2023-04-11T16:03:53.172Z,22.40
2023-04-11T16:06:20.686Z,22.30
2023-04-11T16:08:51.057Z,22.30
2023-04-11T16:11:18.553Z,22.30
2023-04-11T16:13:45.879Z,22.20
2023-04-11T16:16:16.581Z,22.10
2023-04-11T16:18:43.932Z,21.90
2023-04-11T16:21:16.184Z,21.60
2023-04-11T16:23:43.645Z,21.30
2023-04-11T16:26:11.168Z,21.00
2023-04-11T16:28:38.772Z,20.70
2023-04-11T16:31:06.450Z,20.50
2023-04-11T16:33:33.736Z,20.30
2023-04-11T16:36:01.384Z,20.10
2023-04-11T16:38:29.146Z,20.10
2023-04-11T16:44:56.600Z,20.30
2023-04-11T16:47:26.376Z,20.40
2023-04-11T16:49:53.893Z,20.30
2023-04-11T16:52:21.568Z,20.20
2023-04-11T16:54:51.793Z,20.10
2023-04-11T16:57:19.265Z,19.90
2023-04-11T16:59:46.825Z,19.80
2023-04-11T17:02:14.155Z,19.60
2023-04-11T17:04:41.654Z,19.50
2023-04-11T17:07:09.994Z,19.40
2023-04-11T17:09:37.766Z,19.20
2023-04-11T17:12:23.985Z,19.00
2023-04-11T17:15:10.695Z,18.90
2023-04-11T17:17:38.119Z,18.70
2023-04-11T17:20:09.842Z,18.60
2023-04-11T17:22:39.616Z,18.40
2023-04-11T17:25:09.980Z,18.30
2023-04-11T17:27:37.471Z,18.20
2023-04-11T17:30:05.986Z,18.10
2023-04-11T17:32:55.562Z,18.00
2023-04-11T17:35:22.964Z,17.90
2023-04-11T17:37:51.645Z,17.80
2023-04-11T17:40:19.404Z,17.70
2023-04-11T17:42:46.962Z,17.60
2023-04-11T17:45:18.378Z,17.60
2023-04-11T17:47:49.870Z,17.50
2023-04-11T17:50:17.691Z,17.40
2023-04-11T17:52:49.539Z,17.40
2023-04-11T17:55:33.044Z,17.30
2023-04-11T17:58:00.802Z,17.30
2023-04-11T18:01:25.074Z,17.20
2023-04-11T18:04:32.437Z,17.10
2023-04-11T18:06:59.711Z,17.10
2023-04-11T18:09:31.954Z,17.00
2023-04-11T18:12:17.935Z,16.90
2023-04-11T18:14:45.148Z,16.90
2023-04-11T18:17:12.304Z,16.80
2023-04-11T18:19:42.277Z,16.70
2023-04-11T18:22:09.690Z,16.70
2023-04-11T18:24:36.904Z,16.60
2023-04-11T18:27:23.018Z,16.50
2023-04-11T18:29:51.927Z,16.40
2023-04-11T18:36:19.454Z,16.30
2023-04-11T18:38:47.704Z,16.20
2023-04-11T18:41:15.523Z,16.10
2023-04-11T18:43:42.830Z,16.10
2023-04-11T18:46:10.785Z,16.00
2023-04-11T18:48:38.401Z,16.00
2023-04-11T18:51:06.115Z,15.90
2023-04-11T18:53:35.017Z,15.90
2023-04-11T18:56:03.969Z,15.80
2023-04-11T18:58:34.299Z,15.80
2023-04-11T19:01:15.759Z,15.70
2023-04-11T19:03:44.706Z,15.70
2023-04-11T19:06:13.205Z,15.70
2023-04-11T19:08:40.916Z,15.70
2023-04-11T19:11:11.347Z,15.70
2023-04-11T19:13:38.631Z,15.60
2023-04-11T19:16:06.421Z,15.60
2023-04-11T19:18:33.794Z,15.60
2023-04-11T19:21:01.213Z,15.60
2023-04-11T19:23:28.635Z,15.60
2023-04-11T19:25:55.868Z,15.60
2023-04-11T19:28:25.889Z,15.60
2023-04-11T19:30:53.106Z,15.60
2023-04-11T19:33:20.907Z,15.60
2023-04-11T19:35:50.760Z,15.60
2023-04-11T19:38:17.997Z,15.60
2023-04-11T19:40:45.239Z,15.60
2023-04-11T19:43:12.394Z,15.60
2023-04-11T19:45:40.080Z,15.60
2023-04-11T19:48:07.458Z,15.60
2023-04-11T19:50:34.630Z,15.60
2023-04-11T19:53:02.087Z,15.60
2023-04-11T19:55:29.761Z,15.50
2023-04-11T19:57:57.024Z,15.50
2023-04-11T20:00:26.554Z,15.60
2023-04-11T20:02:54.622Z,15.60
2023-04-11T20:05:22.254Z,15.50
2023-04-11T20:07:52.242Z,15.50
2023-04-11T20:10:19.754Z,15.50
2023-04-11T20:12:46.986Z,15.50
2023-04-11T20:15:15.074Z,15.50
2023-04-11T20:18:22.968Z,15.50
2023-04-11T20:20:50.321Z,15.50
2023-04-11T20:23:20.050Z,15.40
2023-04-11T20:25:47.253Z,15.40
2023-04-11T20:28:14.421Z,15.40
2023-04-11T20:30:41.964Z,15.40
2023-04-11T20:33:09.393Z,15.30
2023-04-11T20:35:36.780Z,15.30
2023-04-11T20:38:04.029Z,15.30
2023-04-11T20:40:31.195Z,15.30
2023-04-11T20:43:00.431Z,15.30
2023-04-11T20:45:28.171Z,15.20
2023-04-11T20:47:59.793Z,15.20
2023-04-11T20:50:33.410Z,15.10
2023-04-11T20:53:04.457Z,15.10
2023-04-11T20:55:33.492Z,15.10
2023-04-11T20:58:00.682Z,15.10
2023-04-11T21:00:27.990Z,15.10
2023-04-11T21:02:55.331Z,15.10
2023-04-11T21:05:22.693Z,15.00
2023-04-11T21:07:54.632Z,15.10
2023-04-11T21:10:22.091Z,15.00
2023-04-11T21:12:51.845Z,15.10
2023-04-11T21:15:20.175Z,15.00
2023-04-11T21:17:48.435Z,15.00
2023-04-11T21:20:18.887Z,15.00
2023-04-11T21:22:48.208Z,15.00
2023-04-11T21:25:16.585Z,15.00
2023-04-11T21:27:43.848Z,14.90
2023-04-11T21:30:14.021Z,14.90
2023-04-11T21:32:41.851Z,14.90
2023-04-11T21:35:11.116Z,14.90
2023-04-11T21:41:55.331Z,14.80
2023-04-11T21:44:22.513Z,14.80
2023-04-11T21:46:49.924Z,14.70
2023-04-11T21:49:18.501Z,14.70
2023-04-11T21:51:45.895Z,14.70
2023-04-11T21:54:13.083Z,14.70
2023-04-11T21:56:43.744Z,14.60
2023-04-11T21:59:11.220Z,14.60
2023-04-11T22:01:38.603Z,14.60
2023-04-11T22:04:06.277Z,14.50
2023-04-11T22:06:33.951Z,14.50
2023-04-11T22:09:01.434Z,14.50
2023-04-11T22:11:29.828Z,14.40
2023-04-11T22:13:58.689Z,14.40
2023-04-11T22:16:30.811Z,14.40
2023-04-11T22:18:58.802Z,14.40
2023-04-11T22:21:26.957Z,14.30
2023-04-11T22:23:57.279Z,14.30
2023-04-11T22:26:34.242Z,14.30
2023-04-11T22:29:05.999Z,14.20
2023-04-11T22:31:39.018Z,14.20
2023-04-11T22:34:10.527Z,14.20
2023-04-11T22:36:37.781Z,14.20
2023-04-11T22:39:11.231Z,14.20
2023-04-11T22:41:40.111Z,14.10
2023-04-11T22:44:07.374Z,14.10
2023-04-11T22:46:39.960Z,14.10
2023-04-11T22:49:11.028Z,14.10
2023-04-11T22:51:38.391Z,14.00
2023-04-11T22:54:05.734Z,14.00
2023-04-11T22:56:32.982Z,13.90
2023-04-11T22:59:00.462Z,13.90
2023-04-11T23:01:28.284Z,13.90
2023-04-11T23:03:55.520Z,13.80
2023-04-11T23:06:22.812Z,13.80
2023-04-11T23:08:50.262Z,13.80
2023-04-11T23:11:17.843Z,13.70
2023-04-11T23:13:45.032Z,13.70
2023-04-11T23:16:14.938Z,13.70
2023-04-11T23:18:42.259Z,13.70
2023-04-11T23:21:16.372Z,13.70
2023-04-11T23:23:46.044Z,13.60
2023-04-11T23:26:24.491Z,13.60
2023-04-11T23:28:51.761Z,13.60
2023-04-11T23:31:19.001Z,13.60
2023-04-11T23:33:46.662Z,13.50
2023-04-11T23:36:14.063Z,13.50
2023-04-11T23:38:42.086Z,13.50
2023-04-11T23:41:10.172Z,13.40
2023-04-11T23:43:37.578Z,13.40
2023-04-11T23:46:05.250Z,13.40
2023-04-11T23:48:32.483Z,13.30
2023-04-11T23:50:59.718Z,13.30
2023-04-11T23:53:26.849Z,13.30
2023-04-11T23:55:54.172Z,13.30
2023-04-11T23:58:21.556Z,13.20
